Detall de PIREP

Printer-friendly versionPDF version

[2012/11/25 10:55:00]
Flight IATA:CT0001
Pilot Number:042
Company ICAO:CAT
Aircraft Type:AT72/F
PAX:25
Departing Airport: LERS
Destination Airport: LEIB
Alternate Airport:LEPA
Online: VATSIM
Route:GARBI B31 TOLSO
Flight Level:F180
No Slew and time accel
No pause
Crash detect
Detect pilot in Cockpit between each 30 and 45 minutes
10:55 Zero fuel Weight: 40069 Lbs, Fuel Weight: 11199 Lbs
10:55 VATSIM:LERS 251000Z 36003KT 9999 FEW010 SCT020 14/11 Q1021
10:55 VATSIM:LEIB 251000Z VRB02KT 9999 SCT012 18/16 Q1020 NOSIG
10:55 VOICE CATALONIAN
11:10 Parking Brakes off
11:17 Take-off
11:17 Take off Weight: 51174 Lbs
11:17 Wind: 003º @ 002 Knots Heading: 248º
11:17 POS N41º 08´ 50´´ E001º 09´ 59´´
11:17 Gear Up: 121 Knots
11:17 Flaps:1 at 121 Knots
11:17 Flaps:0 at 147 Knots
11:26 TOC
11:26 Fuel Weight: 10689 Lb
11:32 Wind:242º@016 Knots Heading: 104º Ground Speed: 291 Knots Altitude 17998 ft
11:40 TOD
11:40 Fuel Weight: 10261 Lb
11:47 Wind:231º@002 Knots Heading: 186º Ground Speed: 248 Knots Altitude 9360 ft
12:02 Wind:206º@001 Knots Heading: 228º Ground Speed: 185 Knots Altitude 4333 ft
12:06 Flaps:1 at 161 Knots
12:06 Flaps:2 at 160 Knots
12:06 Flaps:1 at 154 Knots
12:07 Gear Down: 161 Knots
12:08 Flaps:2 at 128 Knots
12:12 TouchDown:Rate -272 ft/min Speed: 86 Knots
12:13 VATSIM:LEIB 251100Z VRB02KT 9999 SCT012 18/16 Q1020 NOSIG
12:13 Land
12:13 Wind:162º@003 Knots
12:13 Heading: 244º
12:13 Flight Duration: 00:56
12:13 Landing Weight: 49872 Lbs
12:13 POS N38º 52´ 23´´ E001º 22´ 25´´
12:16 Parking brakes on
12:16 Block to Block Duration: 01:06
12:16 Final Fuel: 9772 Lbls
12:16 Spent Fuel: 1426 Lbls
12:16 Flight Length: 202 NM
12:16 TOD Land Length: 104 NM

Exportar CSV

Powered by Drupal - Modified by Danger4k